createdAt,value
2017-01-11T00:00:12.850Z,0
2017-01-11T00:00:41.088Z,0
2017-01-11T00:01:09.250Z,0
2017-01-11T00:01:37.406Z,0
2017-01-11T00:02:05.756Z,0
2017-01-11T00:02:33.922Z,0
2017-01-11T00:03:02.399Z,0
2017-01-11T00:03:30.701Z,0
2017-01-11T00:03:58.962Z,0
2017-01-11T00:04:27.233Z,0
2017-01-11T00:05:38.578Z,0
2017-01-11T00:06:06.727Z,0
2017-01-11T00:06:35.060Z,0
2017-01-11T00:07:03.127Z,0
2017-01-11T00:07:31.352Z,0
2017-01-11T00:07:59.419Z,0
2017-01-11T00:08:27.590Z,0
2017-01-11T00:08:55.770Z,0
2017-01-11T00:09:24.075Z,0
2017-01-11T00:09:52.327Z,0
2017-01-11T00:10:20.603Z,0
2017-01-11T00:11:31.764Z,0
2017-01-11T00:12:00.006Z,0
2017-01-11T00:12:28.235Z,0
2017-01-11T00:12:56.654Z,0
2017-01-11T00:13:24.970Z,0
2017-01-11T00:13:53.123Z,0
2017-01-11T00:14:21.199Z,0
2017-01-11T00:14:49.563Z,0
2017-01-11T00:15:17.775Z,0
2017-01-11T00:15:46.116Z,0
2017-01-11T00:16:14.292Z,0
2017-01-11T00:17:25.560Z,0
2017-01-11T00:17:53.788Z,0
2017-01-11T00:18:22.021Z,0
2017-01-11T00:18:50.279Z,0
2017-01-11T00:19:18.321Z,0
2017-01-11T00:19:46.382Z,0
2017-01-11T00:20:14.278Z,0
2017-01-11T00:20:42.546Z,0
2017-01-11T00:21:10.663Z,0
2017-01-11T00:21:38.893Z,0
2017-01-11T00:22:07.261Z,0
2017-01-11T00:23:18.614Z,0
2017-01-11T00:23:46.857Z,0
2017-01-11T00:24:15.180Z,0
2017-01-11T00:24:43.340Z,0
2017-01-11T00:25:11.565Z,0
2017-01-11T00:25:40.363Z,0
2017-01-11T00:26:08.533Z,0
2017-01-11T00:26:36.899Z,0
2017-01-11T00:27:05.112Z,0
2017-01-11T00:27:33.276Z,0
2017-01-11T00:28:01.549Z,0
2017-01-11T00:29:12.902Z,0
2017-01-11T00:29:41.237Z,0
2017-01-11T00:30:09.564Z,0
2017-01-11T00:30:37.630Z,0
2017-01-11T00:31:05.852Z,0
2017-01-11T00:31:34.104Z,0
2017-01-11T00:32:02.183Z,0
2017-01-11T00:32:30.361Z,0
2017-01-11T00:32:58.482Z,0
2017-01-11T00:33:26.735Z,0
2017-01-11T00:33:55.102Z,0
2017-01-11T00:35:06.450Z,0
2017-01-11T00:35:34.599Z,0
2017-01-11T00:36:02.828Z,0
2017-01-11T00:36:31.077Z,0
2017-01-11T00:36:59.301Z,0
2017-01-11T00:37:27.457Z,0
2017-01-11T00:37:55.538Z,0
2017-01-11T00:38:23.809Z,0
2017-01-11T00:38:52.020Z,0
2017-01-11T00:39:20.178Z,0
2017-01-11T00:39:48.544Z,0
2017-01-11T00:40:59.617Z,0
2017-01-11T00:41:27.763Z,0
2017-01-11T00:41:56.086Z,0
2017-01-11T00:42:24.243Z,0
2017-01-11T00:42:52.561Z,0
2017-01-11T00:43:20.718Z,0
2017-01-11T00:43:48.896Z,0
2017-01-11T00:44:17.167Z,0
2017-01-11T00:44:45.286Z,0
2017-01-11T00:45:13.443Z,0
2017-01-11T00:45:41.807Z,0
2017-01-11T00:46:52.970Z,0
2017-01-11T00:47:21.210Z,0
2017-01-11T00:47:49.443Z,0
2017-01-11T00:48:17.506Z,0
2017-01-11T00:48:45.831Z,0
2017-01-11T00:49:13.987Z,0
2017-01-11T00:49:42.918Z,0
2017-01-11T00:50:11.285Z,0
2017-01-11T00:50:39.501Z,0
2017-01-11T00:51:07.756Z,0
2017-01-11T00:51:35.936Z,0
2017-01-11T00:52:47.002Z,0
2017-01-11T00:53:15.233Z,0
2017-01-11T00:53:43.271Z,0
2017-01-11T00:54:11.524Z,0
2017-01-11T00:54:39.837Z,0
2017-01-11T00:55:07.998Z,0
2017-01-11T00:55:35.914Z,0
2017-01-11T00:56:04.329Z,0
2017-01-11T00:56:32.451Z,0
2017-01-11T00:57:00.704Z,0
2017-01-11T00:57:28.787Z,0
2017-01-11T00:58:39.853Z,0
2017-01-11T00:59:07.907Z,0
2017-01-11T00:59:36.046Z,0
2017-01-11T01:00:04.292Z,0
2017-01-11T01:00:32.610Z,0
2017-01-11T01:01:00.767Z,0
2017-01-11T01:01:28.748Z,0
2017-01-11T01:01:57.020Z,0
2017-01-11T01:02:25.046Z,0
2017-01-11T01:02:53.390Z,0
2017-01-11T01:03:21.661Z,0
2017-01-11T01:04:32.818Z,0
2017-01-11T01:05:00.961Z,0
2017-01-11T01:05:29.187Z,0
2017-01-11T01:05:57.152Z,0
2017-01-11T01:06:25.382Z,0
2017-01-11T01:06:53.723Z,0
2017-01-11T01:07:21.888Z,0
2017-01-11T01:07:50.157Z,0
2017-01-11T01:08:18.364Z,0
2017-01-11T01:08:46.607Z,0
2017-01-11T01:09:14.788Z,0
2017-01-11T01:10:25.953Z,0
2017-01-11T01:10:54.191Z,0
2017-01-11T01:11:22.241Z,0
2017-01-11T01:11:50.302Z,0
2017-01-11T01:12:18.527Z,0
2017-01-11T01:12:46.589Z,0
2017-01-11T01:13:14.681Z,0
2017-01-11T01:13:42.859Z,0
2017-01-11T01:14:11.067Z,0
2017-01-11T01:14:39.417Z,0
2017-01-11T01:15:07.784Z,0
2017-01-11T01:16:18.855Z,0
2017-01-11T01:17:01.573Z,0
2017-01-11T01:17:29.702Z,0
2017-01-11T01:17:57.775Z,0
2017-01-11T01:18:25.805Z,0
2017-01-11T01:18:54.432Z,0
2017-01-11T01:19:22.222Z,0
2017-01-11T01:19:50.372Z,0
2017-01-11T01:20:18.600Z,0
2017-01-11T01:20:46.775Z,0
2017-01-11T01:21:15.017Z,0
2017-01-11T01:22:31.939Z,0
2017-01-11T01:23:00.000Z,0
2017-01-11T01:23:28.229Z,0
2017-01-11T01:23:56.478Z,0
2017-01-11T01:24:24.638Z,0
2017-01-11T01:24:52.887Z,0
2017-01-11T01:25:20.962Z,0
2017-01-11T01:25:49.329Z,0
2017-01-11T01:26:17.354Z,0
2017-01-11T01:26:45.421Z,0
2017-01-11T01:27:13.799Z,0
2017-01-11T01:28:25.148Z,0
2017-01-11T01:28:53.481Z,0
2017-01-11T01:29:21.800Z,0
2017-01-11T01:29:49.963Z,0
2017-01-11T01:30:18.091Z,0
2017-01-11T01:30:46.430Z,0
2017-01-11T01:31:14.593Z,0
2017-01-11T01:31:42.956Z,0
2017-01-11T01:32:11.170Z,0
2017-01-11T01:32:39.516Z,0
2017-01-11T01:33:07.882Z,0
2017-01-11T01:34:19.049Z,0
2017-01-11T01:34:47.198Z,0
2017-01-11T01:35:16.059Z,0
2017-01-11T01:35:44.120Z,0
2017-01-11T01:36:12.342Z,0
2017-01-11T01:36:40.590Z,0
2017-01-11T01:37:08.757Z,0
2017-01-11T01:37:36.844Z,0
2017-01-11T01:38:05.052Z,0
2017-01-11T01:38:33.395Z,0
2017-01-11T01:39:01.668Z,0
2017-01-11T01:40:12.924Z,0
2017-01-11T01:40:41.160Z,0
2017-01-11T01:41:09.393Z,0
2017-01-11T01:41:37.361Z,0
2017-01-11T01:42:05.407Z,0
2017-01-11T01:42:33.654Z,0
2017-01-11T01:43:01.643Z,0
2017-01-11T01:43:29.914Z,0
2017-01-11T01:43:58.215Z,0
2017-01-11T01:44:26.372Z,0
2017-01-11T01:44:54.647Z,0
2017-01-11T01:46:05.804Z,0
2017-01-11T01:46:34.045Z,0
2017-01-11T01:47:02.372Z,0
2017-01-11T01:47:30.621Z,0
2017-01-11T01:47:58.934Z,0
2017-01-11T01:48:27.007Z,0
2017-01-11T01:48:55.269Z,0
2017-01-11T01:49:23.630Z,0
2017-01-11T01:49:51.749Z,0
2017-01-11T01:50:19.904Z,0
2017-01-11T01:50:48.176Z,0
2017-01-11T01:51:59.464Z,0
2017-01-11T01:52:27.611Z,0
2017-01-11T01:52:55.928Z,0
2017-01-11T01:53:24.177Z,0
2017-01-11T01:53:52.499Z,0
2017-01-11T01:54:20.750Z,0
2017-01-11T01:54:49.014Z,0
2017-01-11T01:55:17.382Z,0
2017-01-11T01:55:45.711Z,0
2017-01-11T01:56:13.967Z,0
2017-01-11T01:56:42.239Z,0
2017-01-11T01:57:53.406Z,0
2017-01-11T01:58:21.738Z,0
2017-01-11T01:58:50.061Z,0
2017-01-11T01:59:18.221Z,0
2017-01-11T01:59:46.451Z,0
2017-01-11T02:00:14.698Z,0
2017-01-11T02:00:42.967Z,0
2017-01-11T02:01:11.328Z,0
2017-01-11T02:01:39.543Z,0
2017-01-11T02:02:07.797Z,0
2017-01-11T02:02:36.072Z,0
2017-01-11T02:03:47.232Z,0
2017-01-11T02:04:15.378Z,0
2017-01-11T02:04:43.606Z,0
2017-01-11T02:05:11.851Z,0
2017-01-11T02:05:40.085Z,0
2017-01-11T02:06:08.246Z,0
2017-01-11T02:06:36.324Z,0
2017-01-11T02:07:04.595Z,0
2017-01-11T02:07:32.895Z,0
2017-01-11T02:08:01.241Z,0
2017-01-11T02:08:29.513Z,0
2017-01-11T02:09:40.794Z,0
2017-01-11T02:10:08.935Z,0
2017-01-11T02:10:37.161Z,0
2017-01-11T02:11:05.415Z,0
2017-01-11T02:11:33.734Z,0
2017-01-11T02:12:01.886Z,0
2017-01-11T02:12:30.067Z,0
2017-01-11T02:12:58.331Z,0
2017-01-11T02:13:26.450Z,0
2017-01-11T02:13:54.699Z,0
2017-01-11T02:14:22.969Z,0
2017-01-11T02:15:33.846Z,0
2017-01-11T02:16:02.179Z,0
2017-01-11T02:16:30.496Z,0
2017-01-11T02:16:58.745Z,0
2017-01-11T02:17:26.967Z,0
2017-01-11T02:17:55.312Z,0
2017-01-11T02:18:23.200Z,0
2017-01-11T02:18:51.471Z,0
2017-01-11T02:19:19.682Z,0
2017-01-11T02:19:47.839Z,0
2017-01-11T02:20:16.210Z,0
2017-01-11T02:21:27.449Z,0
2017-01-11T02:21:55.610Z,0
2017-01-11T02:22:23.805Z,0
2017-01-11T02:22:52.060Z,0
2017-01-11T02:23:20.399Z,0
2017-01-11T02:23:48.532Z,0
2017-01-11T02:24:16.515Z,0
2017-01-11T02:24:44.780Z,0
2017-01-11T02:25:12.896Z,0
2017-01-11T02:25:41.050Z,0
2017-01-11T02:26:09.228Z,0
2017-01-11T02:27:20.407Z,0
2017-01-11T02:27:48.646Z,0
2017-01-11T02:28:16.968Z,0
2017-01-11T02:28:45.125Z,0
2017-01-11T02:29:13.354Z,0
2017-01-11T02:29:41.506Z,0
2017-01-11T02:30:09.585Z,0
2017-01-11T02:30:37.672Z,0
2017-01-11T02:31:05.978Z,0
2017-01-11T02:31:34.045Z,0
2017-01-11T02:32:02.407Z,0
2017-01-11T02:33:13.656Z,0
2017-01-11T02:33:41.800Z,0
2017-01-11T02:34:10.026Z,0
2017-01-11T02:34:38.273Z,0
2017-01-11T02:35:06.594Z,0
2017-01-11T02:35:34.938Z,0
2017-01-11T02:36:03.106Z,0
2017-01-11T02:36:31.281Z,0
2017-01-11T02:36:59.494Z,0
2017-01-11T02:37:27.745Z,0
2017-01-11T02:37:55.921Z,0
2017-01-11T02:39:07.267Z,0
2017-01-11T02:39:35.597Z,0
2017-01-11T02:40:03.922Z,0
2017-01-11T02:40:32.074Z,0
2017-01-11T02:41:00.299Z,0
2017-01-11T02:41:28.450Z,0
2017-01-11T02:41:56.712Z,0
2017-01-11T02:42:24.981Z,0
2017-01-11T02:42:53.288Z,0
2017-01-11T02:43:21.631Z,0
2017-01-11T02:43:49.903Z,0
2017-01-11T02:45:01.155Z,0
2017-01-11T02:45:29.336Z,0
2017-01-11T02:45:57.567Z,0
2017-01-11T02:46:25.721Z,0
2017-01-11T02:46:53.849Z,0
2017-01-11T02:47:22.097Z,0
2017-01-11T02:47:50.268Z,0
2017-01-11T02:48:18.360Z,0
2017-01-11T02:48:46.568Z,0
2017-01-11T02:49:14.815Z,0
2017-01-11T02:49:42.993Z,0
2017-01-11T02:50:54.061Z,0
2017-01-11T02:51:22.395Z,0
2017-01-11T02:51:50.346Z,0
2017-01-11T02:52:18.315Z,0
2017-01-11T02:52:46.540Z,0
2017-01-11T02:53:14.885Z,0
2017-01-11T02:53:42.956Z,0
2017-01-11T02:54:11.226Z,0
2017-01-11T02:54:39.435Z,0
2017-01-11T02:55:07.694Z,0
2017-01-11T02:55:35.965Z,0
2017-01-11T02:56:47.220Z,0
2017-01-11T02:57:15.556Z,0
2017-01-11T02:57:43.781Z,0
2017-01-11T02:58:12.032Z,0
2017-01-11T02:58:40.253Z,0
2017-01-11T02:59:08.500Z,0
2017-01-11T02:59:36.769Z,0
2017-01-11T03:00:05.044Z,0
2017-01-11T03:00:33.254Z,0
2017-01-11T03:01:01.599Z,0
2017-01-11T03:01:29.868Z,0
2017-01-11T03:02:41.027Z,0
2017-01-11T03:03:09.361Z,0
2017-01-11T03:03:37.587Z,0
2017-01-11T03:04:05.745Z,0
2017-01-11T03:04:33.785Z,0
2017-01-11T03:05:02.039Z,0
2017-01-11T03:05:30.205Z,0
2017-01-11T03:05:58.283Z,0
2017-01-11T03:06:26.401Z,0
2017-01-11T03:06:54.651Z,0
2017-01-11T03:07:23.012Z,0
2017-01-11T03:08:34.261Z,0
2017-01-11T03:09:02.594Z,0
2017-01-11T03:09:30.726Z,0
2017-01-11T03:09:58.785Z,0
2017-01-11T03:10:27.104Z,0
2017-01-11T03:10:55.356Z,0
2017-01-11T03:11:23.526Z,0
2017-01-11T03:11:51.696Z,0
2017-01-11T03:12:19.902Z,0
2017-01-11T03:12:48.153Z,0
2017-01-11T03:13:16.520Z,0
2017-01-11T03:14:27.586Z,0
2017-01-11T03:14:55.824Z,0
2017-01-11T03:15:24.082Z,0
2017-01-11T03:15:51.954Z,0
2017-01-11T03:16:19.988Z,0
2017-01-11T03:16:48.145Z,0
2017-01-11T03:17:16.222Z,0
2017-01-11T03:17:44.491Z,0
2017-01-11T03:18:12.698Z,0
2017-01-11T03:18:40.949Z,0
2017-01-11T03:19:09.224Z,0
2017-01-11T03:20:20.478Z,0
2017-01-11T03:20:48.716Z,0
2017-01-11T03:21:16.756Z,0
2017-01-11T03:21:45.008Z,0
2017-01-11T03:22:13.141Z,0
2017-01-11T03:22:41.372Z,0
2017-01-11T03:23:09.442Z,0
2017-01-11T03:23:37.712Z,0
2017-01-11T03:24:06.015Z,0
2017-01-11T03:24:34.073Z,0
2017-01-11T03:25:02.447Z,0
2017-01-11T03:26:13.785Z,0
2017-01-11T03:26:42.022Z,0
2017-01-11T03:27:10.252Z,0
2017-01-11T03:27:38.311Z,0
2017-01-11T03:28:06.534Z,0
2017-01-11T03:28:34.687Z,0
2017-01-11T03:29:02.763Z,0
2017-01-11T03:29:30.938Z,0
2017-01-11T03:29:58.866Z,0
2017-01-11T03:30:27.047Z,0
2017-01-11T03:30:55.226Z,0
2017-01-11T03:32:06.386Z,0
2017-01-11T03:32:34.711Z,0
2017-01-11T03:33:02.937Z,0
2017-01-11T03:33:31.090Z,0
2017-01-11T03:33:59.317Z,0
2017-01-11T03:34:27.381Z,0
2017-01-11T03:34:55.549Z,0
2017-01-11T03:35:23.917Z,0
2017-01-11T03:35:52.124Z,0
2017-01-11T03:36:20.616Z,0
2017-01-11T03:36:48.893Z,0
2017-01-11T03:38:00.055Z,0
2017-01-11T03:38:28.294Z,0
2017-01-11T09:17:46.782Z,1248
2017-01-11T09:18:15.898Z,1268
2017-01-11T09:18:44.113Z,1284
2017-01-11T09:19:12.444Z,1304
2017-01-11T09:19:40.805Z,1328
2017-01-11T09:20:09.151Z,1352
2017-01-11T09:20:37.297Z,1376
2017-01-11T09:21:05.594Z,1400
2017-01-11T09:21:33.889Z,1416
2017-01-11T09:22:02.518Z,1436
2017-01-11T09:22:30.792Z,1448
2017-01-11T09:23:53.572Z,1496
2017-01-11T09:24:21.944Z,1504
2017-01-11T09:24:50.306Z,1524
2017-01-11T09:25:18.420Z,1532
2017-01-11T09:25:46.712Z,1544
2017-01-11T09:26:15.046Z,1552
2017-01-11T09:26:43.287Z,1560
2017-01-11T09:27:11.640Z,1568
2017-01-11T09:27:39.917Z,1572
2017-01-11T09:28:08.165Z,1572
2017-01-11T09:28:36.471Z,1572
2017-01-11T09:29:47.891Z,1568
2017-01-11T09:30:16.258Z,1568
2017-01-11T09:30:44.528Z,1568
2017-01-11T09:31:12.742Z,1568
2017-01-11T09:31:41.118Z,1568
2017-01-11T09:32:09.270Z,1572
2017-01-11T09:32:37.599Z,1580
2017-01-11T09:33:06.056Z,1584
2017-01-11T09:33:34.243Z,1592
2017-01-11T09:34:02.494Z,1604
2017-01-11T09:34:30.799Z,1612
2017-01-11T09:35:42.222Z,1640
2017-01-11T09:36:10.588Z,1648
2017-01-11T09:36:38.954Z,1656
2017-01-11T09:37:07.165Z,1668
2017-01-11T09:37:35.533Z,1676
2017-01-11T09:38:03.778Z,1680
2017-01-11T09:38:32.016Z,1688
2017-01-11T09:39:00.276Z,1692
2017-01-11T09:39:28.562Z,1696
2017-01-11T09:39:56.907Z,1704
2017-01-11T09:40:25.312Z,1712
2017-01-11T09:41:36.652Z,1732
2017-01-11T09:42:05.017Z,1740
2017-01-11T09:42:33.285Z,1756
2017-01-11T09:43:01.496Z,1764
2017-01-11T09:43:29.690Z,1776
2017-01-11T09:43:57.938Z,1792
2017-01-11T09:44:26.179Z,1808
2017-01-11T09:44:54.633Z,1820
2017-01-11T09:45:22.915Z,1836
2017-01-11T09:45:51.255Z,1848
2017-01-11T09:46:19.655Z,1864
2017-01-11T09:47:31.065Z,1900
2017-01-11T09:47:59.348Z,1916
2017-01-11T09:48:27.623Z,1928
2017-01-11T09:48:55.933Z,1944
2017-01-11T09:49:24.227Z,1956
2017-01-11T09:49:52.377Z,1972
2017-01-11T09:50:20.713Z,1984
2017-01-11T09:50:49.163Z,2000
2017-01-11T09:51:17.442Z,2020
2017-01-11T09:51:45.597Z,2036
2017-01-11T09:52:13.900Z,2052
2017-01-11T09:53:25.047Z,2096
2017-01-11T09:53:53.323Z,2120
2017-01-11T09:54:21.693Z,2136
2017-01-11T09:54:49.907Z,2152
2017-01-11T09:55:18.200Z,2168
2017-01-11T09:55:46.254Z,2180
2017-01-11T09:56:14.491Z,2196
2017-01-11T09:56:42.939Z,2212
2017-01-11T09:57:11.224Z,2228
2017-01-11T09:57:39.093Z,2244
2017-01-11T09:58:07.209Z,2264
2017-01-11T09:59:18.532Z,2316
2017-01-11T09:59:46.626Z,2336
2017-01-11T10:00:14.801Z,2364
2017-01-11T10:00:42.806Z,2400
2017-01-11T10:01:11.148Z,2436
2017-01-11T10:01:39.347Z,2476
2017-01-11T10:02:07.479Z,2520
2017-01-11T10:02:35.832Z,2568
2017-01-11T10:03:04.080Z,2616
2017-01-11T10:03:32.338Z,2668
2017-01-11T10:04:00.738Z,2720
2017-01-11T10:05:12.149Z,2864
2017-01-11T10:05:40.526Z,2924
2017-01-11T10:06:08.754Z,2972
2017-01-11T10:06:37.005Z,3024
2017-01-11T10:07:05.331Z,3080
2017-01-11T10:07:33.619Z,3128
2017-01-11T10:08:01.899Z,3184
2017-01-11T10:08:30.207Z,3244
2017-01-11T10:08:58.442Z,3304
2017-01-11T10:09:26.644Z,3372
2017-01-11T10:09:55.011Z,3440
2017-01-11T10:11:06.431Z,3604
2017-01-11T10:11:34.719Z,3676
2017-01-11T10:12:02.991Z,3760
2017-01-11T10:12:31.195Z,3848
2017-01-11T10:12:59.486Z,3944
2017-01-11T10:13:27.547Z,4040
2017-01-11T10:13:55.876Z,4148
2017-01-11T10:14:24.239Z,4256
2017-01-11T10:14:52.519Z,4360
2017-01-11T10:15:20.804Z,4464
2017-01-11T10:15:49.095Z,4572
2017-01-11T10:17:00.414Z,4848
2017-01-11T10:17:28.596Z,4964
2017-01-11T10:17:56.675Z,5076
2017-01-11T10:18:24.791Z,5188
2017-01-11T10:18:53.080Z,5292
2017-01-11T10:19:21.234Z,5388
2017-01-11T10:19:49.554Z,5484
2017-01-11T10:20:17.878Z,5584
2017-01-11T10:20:46.157Z,5684
2017-01-11T10:21:14.305Z,5800
2017-01-11T10:21:42.605Z,5928
2017-01-11T10:22:53.836Z,6304
2017-01-11T10:23:22.104Z,6480
2017-01-11T10:23:50.278Z,6644
2017-01-11T10:24:18.298Z,6808
2017-01-11T10:24:46.592Z,6980
2017-01-11T10:25:14.644Z,7148
2017-01-11T10:25:42.786Z,7328
2017-01-11T10:26:11.047Z,7512
2017-01-11T10:26:39.135Z,7704
2017-01-11T10:27:07.198Z,7888
2017-01-11T10:27:35.501Z,8072
2017-01-11T10:28:46.828Z,8624
2017-01-11T10:29:15.105Z,8860
2017-01-11T10:29:43.279Z,9084
2017-01-11T10:30:11.401Z,9312
2017-01-11T10:30:39.693Z,9540
2017-01-11T10:31:07.848Z,9780
2017-01-11T10:31:36.171Z,10052
2017-01-11T10:32:04.624Z,10348
2017-01-11T10:32:32.816Z,10668
2017-01-11T10:33:00.967Z,11044
2017-01-11T10:33:29.182Z,11456
2017-01-11T10:34:40.516Z,12444
2017-01-11T10:35:08.793Z,12816
2017-01-11T10:35:36.970Z,13136
2017-01-11T10:36:05.184Z,13396
2017-01-11T10:36:33.386Z,13660
2017-01-11T10:37:01.449Z,13760
2017-01-11T10:37:29.681Z,13744
2017-01-11T10:37:58.037Z,13632
2017-01-11T10:38:26.411Z,13452
2017-01-11T10:38:54.653Z,13172
2017-01-11T10:39:22.776Z,12896
2017-01-11T10:40:34.200Z,12256
2017-01-11T10:41:02.482Z,11896
2017-01-11T10:41:30.761Z,11460
2017-01-11T10:41:59.066Z,10960
2017-01-11T10:42:27.357Z,10308
2017-01-11T10:42:55.611Z,9652
2017-01-11T10:43:23.846Z,8980
2017-01-11T10:43:52.211Z,8396
2017-01-11T10:44:20.404Z,7908
2017-01-11T10:44:48.747Z,7408
2017-01-11T10:45:17.063Z,6964
2017-01-11T10:46:28.304Z,6024
2017-01-11T10:46:56.484Z,5716
2017-01-11T10:47:24.843Z,5432
2017-01-11T10:47:52.953Z,5180
2017-01-11T10:48:21.246Z,4964
2017-01-11T10:48:49.582Z,4784
2017-01-11T10:49:17.735Z,4648
2017-01-11T10:49:46.091Z,4532
2017-01-11T10:50:14.372Z,4448
2017-01-11T10:50:42.714Z,4416
2017-01-11T10:51:11.025Z,4420
2017-01-11T10:52:22.268Z,4644
2017-01-11T10:52:50.641Z,4788
2017-01-11T10:53:18.821Z,4928
2017-01-11T10:53:47.033Z,5076
2017-01-11T10:54:15.329Z,5212
2017-01-11T10:54:43.390Z,5360
2017-01-11T10:55:11.723Z,5516
2017-01-11T10:55:40.079Z,5692
2017-01-11T10:56:08.365Z,5848
2017-01-11T10:56:36.613Z,6020
2017-01-11T10:57:05.015Z,6216
2017-01-11T10:58:16.348Z,6668
2017-01-11T10:58:44.721Z,6756
2017-01-11T10:59:12.899Z,6840
2017-01-11T10:59:41.115Z,6932
2017-01-11T11:00:09.409Z,7036
2017-01-11T11:00:37.747Z,7112
2017-01-11T11:01:05.987Z,7136
2017-01-11T11:01:34.255Z,7124
2017-01-11T11:02:02.540Z,7088
2017-01-11T11:02:30.796Z,6988
2017-01-11T11:02:59.011Z,6864
2017-01-11T11:04:10.252Z,6564
2017-01-11T11:04:38.529Z,6480
2017-01-11T11:05:06.704Z,6476
2017-01-11T11:05:34.918Z,6472
2017-01-11T11:06:03.211Z,6536
2017-01-11T11:06:31.552Z,6544
2017-01-11T11:06:59.883Z,6416
2017-01-11T11:07:28.244Z,6244
2017-01-11T11:07:56.619Z,6036
2017-01-11T11:08:24.959Z,5908
2017-01-11T11:08:53.089Z,5812
2017-01-11T11:10:04.421Z,5768
2017-01-11T11:10:32.698Z,5832
2017-01-11T11:11:00.967Z,5928
2017-01-11T11:11:29.082Z,6032
2017-01-11T11:11:57.190Z,6172
2017-01-11T11:12:25.347Z,6276
2017-01-11T11:12:53.403Z,6292
2017-01-11T11:13:21.857Z,6188
2017-01-11T11:13:50.134Z,6004
2017-01-11T11:14:18.386Z,5728
2017-01-11T11:14:46.784Z,5532
2017-01-11T11:15:58.028Z,5208
2017-01-11T11:16:26.403Z,5140
2017-01-11T11:16:54.576Z,5104
2017-01-11T11:17:22.882Z,5140
2017-01-11T11:17:51.081Z,5244
2017-01-11T11:18:19.335Z,5412
2017-01-11T11:18:47.669Z,5564
2017-01-11T11:19:15.930Z,5724
2017-01-11T11:19:44.303Z,5916
2017-01-11T11:20:12.646Z,5784
2017-01-11T11:20:40.951Z,5664
2017-01-11T11:21:52.021Z,5776
2017-01-11T11:22:20.394Z,6000
2017-01-11T11:22:48.756Z,6232
2017-01-11T11:23:16.976Z,6436
2017-01-11T11:23:45.079Z,6568
2017-01-11T11:24:13.321Z,6632
2017-01-11T11:24:41.561Z,6668
2017-01-11T11:25:09.926Z,6744
2017-01-11T11:25:38.205Z,6952
2017-01-11T11:26:06.458Z,7368
2017-01-11T11:26:34.670Z,7920
2017-01-11T11:27:46.000Z,9132
2017-01-11T11:28:14.373Z,9708
2017-01-11T11:28:42.645Z,10216
2017-01-11T11:29:10.761Z,10564
2017-01-11T11:29:39.051Z,10736
2017-01-11T11:30:07.298Z,10788
2017-01-11T11:30:35.346Z,10756
2017-01-11T11:31:03.796Z,10636
2017-01-11T11:31:32.084Z,10636
2017-01-11T11:32:00.330Z,10716
2017-01-11T11:32:28.639Z,10852
2017-01-11T11:33:39.976Z,12276
2017-01-11T11:34:08.161Z,12824
2017-01-11T11:34:36.532Z,13424
2017-01-11T11:35:04.751Z,14712
2017-01-11T11:35:32.950Z,15716
2017-01-11T11:36:01.195Z,16608
2017-01-11T11:36:29.431Z,17088
2017-01-11T11:36:57.785Z,16896
2017-01-11T11:37:26.066Z,16992
2017-01-11T11:37:54.408Z,19104
2017-01-11T11:38:22.712Z,21216
2017-01-11T11:39:33.878Z,24288
2017-01-11T11:40:01.791Z,29280
2017-01-11T11:40:30.067Z,41408
2017-01-11T11:40:58.177Z,47744
2017-01-11T11:41:26.277Z,40544
2017-01-11T11:41:54.432Z,35200
2017-01-11T11:42:22.573Z,34176
2017-01-11T11:42:51.022Z,37760
2017-01-11T11:43:19.209Z,47296
2017-01-11T11:43:47.452Z,45664
2017-01-11T11:44:15.662Z,37088
2017-01-11T11:45:26.994Z,60192
2017-01-11T11:45:54.995Z,56352
2017-01-11T11:46:23.184Z,61856
2017-01-11T11:46:51.399Z,63584
2017-01-11T11:47:19.506Z,65088
2017-01-11T11:47:47.592Z,64384
2017-01-11T11:48:15.618Z,63744
2017-01-11T11:48:43.978Z,63744
2017-01-11T11:49:12.106Z,62784
2017-01-11T11:49:40.269Z,57056
2017-01-11T11:50:08.474Z,51904
2017-01-11T11:51:19.529Z,35552
2017-01-11T11:51:47.716Z,31744
2017-01-11T11:52:15.995Z,31744
2017-01-11T11:52:44.122Z,34944
2017-01-11T11:53:12.324Z,31232
2017-01-11T11:53:40.571Z,35808
2017-01-11T11:54:08.722Z,37024
2017-01-11T11:54:36.895Z,48320
2017-01-11T11:55:04.804Z,35168
2017-01-11T11:55:32.963Z,26752
2017-01-11T11:56:01.271Z,34592
2017-01-11T11:57:12.612Z,25344
2017-01-11T11:57:40.801Z,48256
2017-01-11T11:58:08.798Z,30496
2017-01-11T11:58:37.023Z,56224
2017-01-11T11:59:05.037Z,55296
2017-01-11T11:59:33.381Z,29664
2017-01-11T12:00:01.626Z,27808
2017-01-11T12:00:29.988Z,45280
2017-01-11T12:00:58.185Z,51968
2017-01-11T12:01:26.260Z,49120
2017-01-11T12:01:54.564Z,38112
2017-01-11T12:03:05.782Z,34336
2017-01-11T12:03:34.154Z,31296
2017-01-11T12:04:02.384Z,29600
2017-01-11T12:04:30.699Z,41856
2017-01-11T12:04:58.897Z,39744
2017-01-11T12:05:27.033Z,37184
2017-01-11T12:05:55.366Z,45600
2017-01-11T12:06:23.774Z,47296
2017-01-11T12:06:51.854Z,46496
2017-01-11T12:07:20.107Z,48128
2017-01-11T12:07:48.422Z,50176
2017-01-11T12:08:59.857Z,27328
2017-01-11T12:09:28.237Z,46464
2017-01-11T12:09:56.513Z,34496
2017-01-11T12:10:24.829Z,26944
2017-01-11T12:10:53.124Z,25600
2017-01-11T12:11:21.469Z,29664
2017-01-11T12:11:49.621Z,29728
2017-01-11T12:12:18.076Z,30016
2017-01-11T12:12:46.175Z,40736
2017-01-11T12:13:14.332Z,40256
2017-01-11T12:13:42.367Z,31040
2017-01-11T12:14:53.610Z,35168
2017-01-11T12:15:21.777Z,31936
2017-01-11T12:15:49.966Z,50816
2017-01-11T12:16:18.095Z,33568
2017-01-11T12:16:46.298Z,34560
2017-01-11T12:17:14.640Z,35104
2017-01-11T12:17:42.847Z,29536
2017-01-11T12:18:11.115Z,31712
2017-01-11T12:18:39.309Z,39360
2017-01-11T12:19:07.474Z,44224
2017-01-11T12:19:35.786Z,31840
2017-01-11T12:20:47.127Z,26016
2017-01-11T12:21:15.412Z,30144
2017-01-11T12:21:43.599Z,31008
2017-01-11T12:22:11.816Z,31520
2017-01-11T12:22:40.115Z,33568
2017-01-11T12:23:08.182Z,35584
2017-01-11T12:23:36.331Z,36256
2017-01-11T12:24:04.509Z,34432
2017-01-11T12:24:32.795Z,33120
2017-01-11T12:25:00.763Z,33696
2017-01-11T12:25:29.080Z,31296
2017-01-11T12:26:40.328Z,31104
2017-01-11T12:27:08.523Z,31488
2017-01-11T12:27:36.894Z,36832
2017-01-11T12:28:05.116Z,37248
2017-01-11T12:28:33.228Z,39840
2017-01-11T12:29:01.484Z,36192
2017-01-11T12:29:29.630Z,41472
2017-01-11T12:29:57.997Z,36320
2017-01-11T12:30:26.378Z,33472
2017-01-11T12:30:54.455Z,29504
2017-01-11T12:31:22.860Z,26912
2017-01-11T12:32:34.298Z,23712
2017-01-11T12:33:02.679Z,23328
2017-01-11T12:33:30.909Z,22752
2017-01-11T12:33:58.992Z,21984
2017-01-11T12:34:27.238Z,21952
2017-01-11T12:34:55.345Z,21632
2017-01-11T12:35:23.543Z,21248
2017-01-11T12:35:51.867Z,19904
2017-01-11T12:36:20.246Z,19584
2017-01-11T12:36:48.227Z,20192
2017-01-11T12:37:16.536Z,19968
2017-01-11T12:38:27.683Z,18240
2017-01-11T12:38:55.969Z,17792
2017-01-11T12:39:23.976Z,19232
2017-01-11T12:39:52.192Z,19744
2017-01-11T12:40:20.396Z,16736
2017-01-11T12:40:48.556Z,17440
2017-01-11T12:41:16.804Z,16800
2017-01-11T12:41:45.161Z,20224
2017-01-11T12:42:13.252Z,23520
2017-01-11T12:42:41.302Z,26688
2017-01-11T12:43:09.526Z,23936
2017-01-11T12:44:20.772Z,32640
2017-01-11T12:44:49.056Z,33440
2017-01-11T12:45:17.339Z,33280
2017-01-11T12:45:45.456Z,27136
2017-01-11T12:46:13.470Z,22880
2017-01-11T12:46:41.717Z,24224
2017-01-11T12:47:09.866Z,27328
2017-01-11T12:47:38.228Z,25248
2017-01-11T12:48:06.236Z,21536
2017-01-11T12:48:34.492Z,19648
2017-01-11T12:49:02.804Z,20224
2017-01-11T12:50:14.143Z,21536
2017-01-11T12:50:42.420Z,21088
2017-01-11T12:51:10.609Z,20352
2017-01-11T12:51:38.824Z,19200
2017-01-11T12:52:07.214Z,18176
2017-01-11T12:52:35.373Z,18144
2017-01-11T12:53:03.518Z,17280
2017-01-11T12:53:31.874Z,17120
2017-01-11T12:53:59.966Z,16832
2017-01-11T12:54:28.122Z,17280
2017-01-11T12:54:56.431Z,17984
2017-01-11T12:56:07.585Z,19264
2017-01-11T12:56:35.777Z,18976
2017-01-11T12:57:03.778Z,18816
2017-01-11T12:57:31.808Z,18624
2017-01-11T12:57:59.920Z,18432
2017-01-11T12:58:28.171Z,18080
2017-01-11T12:58:56.413Z,17760
2017-01-11T12:59:24.676Z,17472
2017-01-11T12:59:53.057Z,17376
2017-01-11T13:00:21.407Z,16992
2017-01-11T13:00:49.717Z,16704
2017-01-11T13:02:01.150Z,16416
2017-01-11T13:02:29.525Z,16384
2017-01-11T13:02:57.682Z,16288
2017-01-11T13:03:25.897Z,16224
2017-01-11T13:03:53.915Z,16256
2017-01-11T13:04:21.987Z,16352
2017-01-11T13:04:50.319Z,16480